sensor_id;sensor_type;location;lat;lon;timestamp;pressure;altitude;pressure_sealevel;temperature;humidity
16120;BME280;12670;53.502;10.252;2024-01-07T00:00:08;101705.03;;;1.03;100.00
16120;BME280;12670;53.502;10.252;2024-01-07T00:03:11;101711.09;;;1.01;100.00
16120;BME280;12670;53.502;10.252;2024-01-07T00:06:15;101714.50;;;0.95;100.00
16120;BME280;12670;53.502;10.252;2024-01-07T00:09:18;101712.22;;;1.21;100.00
16120;BME280;12670;53.502;10.252;2024-01-07T00:12:20;101718.97;;;1.02;100.00
16120;BME280;12670;53.502;10.252;2024-01-07T00:15:24;101726.16;;;1.20;100.00
16120;BME280;12670;53.502;10.252;2024-01-07T00:18:28;101731.50;;;1.29;100.00
16120;BME280;12670;53.502;10.252;2024-01-07T00:21:32;101725.94;;;1.05;100.00
16120;BME280;12670;53.502;10.252;2024-01-07T00:24:35;101735.72;;;1.18;100.00
16120;BME280;12670;53.502;10.252;2024-01-07T00:27:38;101733.69;;;0.96;100.00
16120;BME280;12670;53.502;10.252;2024-01-07T00:30:40;101746.19;;;1.21;100.00
16120;BME280;12670;53.502;10.252;2024-01-07T00:33:43;101730.44;;;1.14;100.00
16120;BME280;12670;53.502;10.252;2024-01-07T00:36:47;101733.69;;;0.96;100.00
16120;BME280;12670;53.502;10.252;2024-01-07T00:39:50;101739.06;;;1.08;100.00
16120;BME280;12670;53.502;10.252;2024-01-07T00:42:53;101742.47;;;1.02;100.00
16120;BME280;12670;53.502;10.252;2024-01-07T00:45:56;101743.38;;;1.04;100.00
16120;BME280;12670;53.502;10.252;2024-01-07T00:48:58;101752.34;;;1.23;100.00
16120;BME280;12670;53.502;10.252;2024-01-07T00:52:03;101750.09;;;0.87;100.00
16120;BME280;12670;53.502;10.252;2024-01-07T00:55:06;101748.63;;;1.06;100.00
16120;BME280;12670;53.502;10.252;2024-01-07T00:58:09;101762.34;;;0.90;100.00
16120;BME280;12670;53.502;10.252;2024-01-07T01:01:14;101760.13;;;0.58;100.00
16120;BME280;12670;53.502;10.252;2024-01-07T01:04:17;101760.69;;;0.98;100.00
16120;BME280;12670;53.502;10.252;2024-01-07T01:07:22;101767.34;;;0.74;100.00
16120;BME280;12670;53.502;10.252;2024-01-07T01:10:25;101774.63;;;0.95;100.00
16120;BME280;12670;53.502;10.252;2024-01-07T01:13:28;101790.44;;;0.48;100.00
16120;BME280;12670;53.502;10.252;2024-01-07T01:16:31;101790.94;;;0.80;100.00
16120;BME280;12670;53.502;10.252;2024-01-07T01:19:33;101797.34;;;0.45;100.00
16120;BME280;12670;53.502;10.252;2024-01-07T01:22:38;101808.03;;;0.60;100.00
16120;BME280;12670;53.502;10.252;2024-01-07T01:25:40;101802.13;;;0.72;100.00
16120;BME280;12670;53.502;10.252;2024-01-07T01:28:43;101810.78;;;0.69;100.00
16120;BME280;12670;53.502;10.252;2024-01-07T01:31:46;101812.59;;;0.73;100.00
16120;BME280;12670;53.502;10.252;2024-01-07T01:34:49;101815.28;;;0.78;100.00
16120;BME280;12670;53.502;10.252;2024-01-07T01:37:53;101820.91;;;0.48;100.00
16120;BME280;12670;53.502;10.252;2024-01-07T01:40:56;101823.91;;;0.72;100.00
16120;BME280;12670;53.502;10.252;2024-01-07T01:43:59;101822.84;;;0.61;100.00
16120;BME280;12670;53.502;10.252;2024-01-07T01:47:02;101829.78;;;0.59;100.00
16120;BME280;12670;53.502;10.252;2024-01-07T01:50:06;101835.06;;;0.62;100.00
16120;BME280;12670;53.502;10.252;2024-01-07T01:53:10;101836.91;;;0.69;100.00
16120;BME280;12670;53.502;10.252;2024-01-07T01:56:13;101843.09;;;0.76;100.00
16120;BME280;12670;53.502;10.252;2024-01-07T01:59:16;101849.44;;;0.92;100.00
16120;BME280;12670;53.502;10.252;2024-01-07T02:02:19;101854.22;;;0.64;100.00
16120;BME280;12670;53.502;10.252;2024-01-07T02:05:22;101862.16;;;0.69;100.00
16120;BME280;12670;53.502;10.252;2024-01-07T02:08:27;101865.31;;;0.51;100.00
16120;BME280;12670;53.502;10.252;2024-01-07T02:11:30;101864.75;;;0.67;100.00
16120;BME280;12670;53.502;10.252;2024-01-07T02:14:32;101874.25;;;0.64;100.00
16120;BME280;12670;53.502;10.252;2024-01-07T02:17:35;101869.22;;;0.76;100.00
16120;BME280;12670;53.502;10.252;2024-01-07T02:20:38;101868.34;;;0.75;100.00
16120;BME280;12670;53.502;10.252;2024-01-07T02:23:42;101872.94;;;0.89;100.00
16120;BME280;12670;53.502;10.252;2024-01-07T02:26:46;101878.97;;;0.85;100.00
16120;BME280;12670;53.502;10.252;2024-01-07T02:29:49;101872.59;;;0.70;100.00
16120;BME280;12670;53.502;10.252;2024-01-07T02:32:51;101883.38;;;0.89;100.00
16120;BME280;12670;53.502;10.252;2024-01-07T02:35:54;101881.28;;;0.66;100.00
16120;BME280;12670;53.502;10.252;2024-01-07T02:38:57;101886.31;;;0.56;100.00
16120;BME280;12670;53.502;10.252;2024-01-07T02:42:01;101881.75;;;0.44;100.00
16120;BME280;12670;53.502;10.252;2024-01-07T02:45:05;101887.13;;;0.53;100.00
16120;BME280;12670;53.502;10.252;2024-01-07T02:48:07;101885.13;;;0.40;100.00
16120;BME280;12670;53.502;10.252;2024-01-07T02:51:10;101886.88;;;0.89;100.00
16120;BME280;12670;53.502;10.252;2024-01-07T02:54:13;101898.91;;;0.79;100.00
16120;BME280;12670;53.502;10.252;2024-01-07T02:57:17;101896.50;;;0.42;100.00
16120;BME280;12670;53.502;10.252;2024-01-07T03:00:19;101904.97;;;0.78;100.00
16120;BME280;12670;53.502;10.252;2024-01-07T03:03:22;101905.91;;;0.82;100.00
16120;BME280;12670;53.502;10.252;2024-01-07T03:06:26;101906.53;;;0.67;100.00
16120;BME280;12670;53.502;10.252;2024-01-07T03:09:29;101908.19;;;0.62;100.00
16120;BME280;12670;53.502;10.252;2024-01-07T03:12:33;101908.38;;;0.74;100.00
16120;BME280;12670;53.502;10.252;2024-01-07T03:15:36;101913.78;;;0.84;100.00
16120;BME280;12670;53.502;10.252;2024-01-07T03:18:39;101912.44;;;1.07;100.00
16120;BME280;12670;53.502;10.252;2024-01-07T03:21:42;101912.53;;;1.13;100.00
16120;BME280;12670;53.502;10.252;2024-01-07T03:24:45;101911.66;;;1.13;100.00
16120;BME280;12670;53.502;10.252;2024-01-07T03:27:50;101912.53;;;1.15;100.00
16120;BME280;12670;53.502;10.252;2024-01-07T03:30:52;101916.69;;;1.02;100.00
16120;BME280;12670;53.502;10.252;2024-01-07T03:33:55;101921.06;;;1.03;100.00
16120;BME280;12670;53.502;10.252;2024-01-07T03:36:58;101918.72;;;1.21;100.00
16120;BME280;12670;53.502;10.252;2024-01-07T03:40:01;101925.53;;;1.10;100.00
16120;BME280;12670;53.502;10.252;2024-01-07T03:43:06;101922.22;;;1.20;100.00
16120;BME280;12670;53.502;10.252;2024-01-07T03:46:09;101934.91;;;0.99;100.00
16120;BME280;12670;53.502;10.252;2024-01-07T03:49:11;101927.34;;;1.16;100.00
16120;BME280;12670;53.502;10.252;2024-01-07T03:52:14;101930.22;;;1.32;100.00
16120;BME280;12670;53.502;10.252;2024-01-07T03:55:17;101940.72;;;0.81;100.00
16120;BME280;12670;53.502;10.252;2024-01-07T03:58:21;101941.34;;;1.18;100.00
16120;BME280;12670;53.502;10.252;2024-01-07T04:01:24;101950.66;;;1.02;100.00
16120;BME280;12670;53.502;10.252;2024-01-07T04:04:27;101947.31;;;1.11;100.00
16120;BME280;12670;53.502;10.252;2024-01-07T04:07:30;101953.28;;;1.02;100.00
16120;BME280;12670;53.502;10.252;2024-01-07T04:10:32;101955.94;;;1.05;100.00
16120;BME280;12670;53.502;10.252;2024-01-07T04:13:36;101962.03;;;1.05;100.00
16120;BME280;12670;53.502;10.252;2024-01-07T04:16:39;101964.94;;;1.22;100.00
16120;BME280;12670;53.502;10.252;2024-01-07T04:19:42;101969.53;;;1.37;100.00
16120;BME280;12670;53.502;10.252;2024-01-07T04:22:45;101968.94;;;1.00;100.00
16120;BME280;12670;53.502;10.252;2024-01-07T04:25:48;101983.03;;;1.10;100.00
16120;BME280;12670;53.502;10.252;2024-01-07T04:28:52;101974.97;;;0.98;100.00
16120;BME280;12670;53.502;10.252;2024-01-07T04:31:54;101988.53;;;1.27;100.00
16120;BME280;12670;53.502;10.252;2024-01-07T04:34:57;101983.38;;;1.31;100.00
16120;BME280;12670;53.502;10.252;2024-01-07T04:38:00;101986.81;;;1.27;100.00
16120;BME280;12670;53.502;10.252;2024-01-07T04:41:03;101989.47;;;1.30;100.00
16120;BME280;12670;53.502;10.252;2024-01-07T04:44:10;101991.16;;;1.28;100.00
16120;BME280;12670;53.502;10.252;2024-01-07T04:47:25;101988.72;;;1.39;100.00
16120;BME280;12670;53.502;10.252;2024-01-07T04:50:29;101982.59;;;1.37;100.00
16120;BME280;12670;53.502;10.252;2024-01-07T04:53:31;101991.31;;;1.36;100.00
16120;BME280;12670;53.502;10.252;2024-01-07T04:56:34;101991.25;;;1.34;100.00
16120;BME280;12670;53.502;10.252;2024-01-07T04:59:38;101995.00;;;0.97;100.00
16120;BME280;12670;53.502;10.252;2024-01-07T05:02:41;101997.72;;;1.02;100.00
16120;BME280;12670;53.502;10.252;2024-01-07T05:05:43;102003.53;;;1.39;100.00
16120;BME280;12670;53.502;10.252;2024-01-07T05:08:46;102000.91;;;1.36;100.00
16120;BME280;12670;53.502;10.252;2024-01-07T05:11:49;102007.97;;;1.41;100.00
16120;BME280;12670;53.502;10.252;2024-01-07T05:14:53;102002.63;;;1.35;100.00
16120;BME280;12670;53.502;10.252;2024-01-07T05:17:55;102006.91;;;1.31;100.00
16120;BME280;12670;53.502;10.252;2024-01-07T05:20:59;102015.91;;;1.49;100.00
16120;BME280;12670;53.502;10.252;2024-01-07T05:24:01;102015.06;;;1.50;100.00
16120;BME280;12670;53.502;10.252;2024-01-07T05:27:04;102019.44;;;1.51;100.00
16120;BME280;12670;53.502;10.252;2024-01-07T05:30:09;102020.28;;;1.48;100.00
16120;BME280;12670;53.502;10.252;2024-01-07T05:33:12;102023.47;;;1.30;100.00
16120;BME280;12670;53.502;10.252;2024-01-07T05:36:15;102026.19;;;1.38;100.00
16120;BME280;12670;53.502;10.252;2024-01-07T05:39:18;102024.66;;;1.51;100.00
16120;BME280;12670;53.502;10.252;2024-01-07T05:42:21;102028.16;;;1.51;100.00
16120;BME280;12670;53.502;10.252;2024-01-07T05:45:25;102031.00;;;1.12;100.00
16120;BME280;12670;53.502;10.252;2024-01-07T05:48:27;102046.06;;;1.28;100.00
16120;BME280;12670;53.502;10.252;2024-01-07T05:51:30;102047.34;;;1.52;100.00
16120;BME280;12670;53.502;10.252;2024-01-07T05:54:33;102048.25;;;1.54;100.00
16120;BME280;12670;53.502;10.252;2024-01-07T05:57:36;102047.53;;;1.64;100.00
16120;BME280;12670;53.502;10.252;2024-01-07T06:00:40;102052.22;;;1.30;100.00
16120;BME280;12670;53.502;10.252;2024-01-07T06:03:42;102055.91;;;1.42;100.00
16120;BME280;12670;53.502;10.252;2024-01-07T06:06:45;102055.19;;;1.52;100.00
16120;BME280;12670;53.502;10.252;2024-01-07T06:09:51;102061.16;;;1.43;100.00
16120;BME280;12670;53.502;10.252;2024-01-07T06:12:54;102071.97;;;1.65;100.00
16120;BME280;12670;53.502;10.252;2024-01-07T06:15:58;102072.78;;;1.62;100.00
16120;BME280;12670;53.502;10.252;2024-01-07T06:19:01;102073.50;;;1.52;100.00
16120;BME280;12670;53.502;10.252;2024-01-07T06:22:04;102076.28;;;1.61;100.00
16120;BME280;12670;53.502;10.252;2024-01-07T06:25:07;102079.75;;;1.60;100.00
16120;BME280;12670;53.502;10.252;2024-01-07T06:28:10;102071.94;;;1.63;100.00
16120;BME280;12670;53.502;10.252;2024-01-07T06:31:14;102075.03;;;1.39;100.00
16120;BME280;12670;53.502;10.252;2024-01-07T06:34:17;102082.31;;;1.57;100.00
16120;BME280;12670;53.502;10.252;2024-01-07T06:37:20;102089.25;;;1.55;100.00
16120;BME280;12670;53.502;10.252;2024-01-07T06:40:22;102085.38;;;1.31;100.00
16120;BME280;12670;53.502;10.252;2024-01-07T06:43:25;102087.53;;;1.57;100.00
16120;BME280;12670;53.502;10.252;2024-01-07T06:46:29;102090.13;;;1.54;100.00
16120;BME280;12670;53.502;10.252;2024-01-07T06:49:32;102097.84;;;1.48;100.00
16120;BME280;12670;53.502;10.252;2024-01-07T06:52:35;102095.72;;;1.25;100.00
16120;BME280;12670;53.502;10.252;2024-01-07T06:55:38;102098.63;;;1.42;100.00
16120;BME280;12670;53.502;10.252;2024-01-07T06:58:40;102095.84;;;1.34;100.00
16120;BME280;12670;53.502;10.252;2024-01-07T07:01:45;102099.34;;;1.33;100.00
16120;BME280;12670;53.502;10.252;2024-01-07T07:04:48;102104.09;;;1.56;100.00
16120;BME280;12670;53.502;10.252;2024-01-07T07:07:52;102111.81;;;1.50;100.00
16120;BME280;12670;53.502;10.252;2024-01-07T07:10:56;102117.28;;;1.62;100.00
16120;BME280;12670;53.502;10.252;2024-01-07T07:13:59;102121.63;;;1.62;100.00
16120;BME280;12670;53.502;10.252;2024-01-07T07:17:03;102126.94;;;1.66;100.00
16120;BME280;12670;53.502;10.252;2024-01-07T07:20:07;102125.19;;;1.65;100.00
16120;BME280;12670;53.502;10.252;2024-01-07T07:23:10;102137.31;;;1.60;100.00
16120;BME280;12670;53.502;10.252;2024-01-07T07:26:13;102139.94;;;1.63;100.00
16120;BME280;12670;53.502;10.252;2024-01-07T07:29:16;102154.63;;;1.53;100.00
16120;BME280;12670;53.502;10.252;2024-01-07T07:32:20;102156.53;;;1.64;100.00
16120;BME280;12670;53.502;10.252;2024-01-07T07:35:22;102158.16;;;1.57;100.00
16120;BME280;12670;53.502;10.252;2024-01-07T07:38:25;102157.19;;;1.52;100.00
16120;BME280;12670;53.502;10.252;2024-01-07T07:41:27;102160.50;;;1.42;100.00
16120;BME280;12670;53.502;10.252;2024-01-07T07:44:31;102166.56;;;1.39;100.00
16120;BME280;12670;53.502;10.252;2024-01-07T07:47:35;102170.78;;;1.32;100.00
16120;BME280;12670;53.502;10.252;2024-01-07T07:50:37;102170.63;;;1.23;100.00
16120;BME280;12670;53.502;10.252;2024-01-07T07:53:41;102175.78;;;1.20;100.00
16120;BME280;12670;53.502;10.252;2024-01-07T07:56:44;102186.97;;;1.12;100.00
16120;BME280;12670;53.502;10.252;2024-01-07T07:59:47;102185.81;;;0.99;100.00
16120;BME280;12670;53.502;10.252;2024-01-07T08:02:51;102186.78;;;1.04;100.00
16120;BME280;12670;53.502;10.252;2024-01-07T08:05:54;102189.34;;;1.01;100.00
16120;BME280;12670;53.502;10.252;2024-01-07T08:08:57;102199.81;;;1.01;100.00
16120;BME280;12670;53.502;10.252;2024-01-07T08:12:00;102200.44;;;0.91;100.00
16120;BME280;12670;53.502;10.252;2024-01-07T08:15:03;102200.56;;;0.97;100.00
16120;BME280;12670;53.502;10.252;2024-01-07T08:18:07;102209.03;;;0.85;100.00
16120;BME280;12670;53.502;10.252;2024-01-07T08:21:10;102209.56;;;0.70;100.00
16120;BME280;12670;53.502;10.252;2024-01-07T08:24:13;102213.38;;;0.85;100.00
16120;BME280;12670;53.502;10.252;2024-01-07T08:27:16;102222.13;;;0.87;100.00
16120;BME280;12670;53.502;10.252;2024-01-07T08:30:19;102221.13;;;0.82;100.00
16120;BME280;12670;53.502;10.252;2024-01-07T08:33:23;102223.88;;;0.88;100.00
16120;BME280;12670;53.502;10.252;2024-01-07T08:36:26;102228.97;;;0.82;100.00
16120;BME280;12670;53.502;10.252;2024-01-07T08:39:29;102230.81;;;0.86;100.00
16120;BME280;12670;53.502;10.252;2024-01-07T08:42:32;102240.41;;;0.87;100.00
16120;BME280;12670;53.502;10.252;2024-01-07T08:45:35;102238.91;;;0.96;100.00
16120;BME280;12670;53.502;10.252;2024-01-07T08:48:39;102242.31;;;0.94;100.00
16120;BME280;12670;53.502;10.252;2024-01-07T08:51:42;102243.13;;;0.90;100.00
16120;BME280;12670;53.502;10.252;2024-01-07T08:54:45;102246.50;;;0.86;100.00
16120;BME280;12670;53.502;10.252;2024-01-07T08:57:47;102252.59;;;0.86;100.00
16120;BME280;12670;53.502;10.252;2024-01-07T09:00:50;102257.91;;;0.89;100.00
16120;BME280;12670;53.502;10.252;2024-01-07T09:03:55;102263.19;;;0.92;100.00
16120;BME280;12670;53.502;10.252;2024-01-07T09:06:57;102260.56;;;0.91;100.00
16120;BME280;12670;53.502;10.252;2024-01-07T09:10:00;102267.75;;;1.01;100.00
16120;BME280;12670;53.502;10.252;2024-01-07T09:13:03;102276.63;;;1.09;100.00
16120;BME280;12670;53.502;10.252;2024-01-07T09:16:06;102280.97;;;1.07;100.00
16120;BME280;12670;53.502;10.252;2024-01-07T09:19:12;102274.78;;;1.05;100.00
16120;BME280;12670;53.502;10.252;2024-01-07T09:22:16;102281.47;;;0.91;100.00
16120;BME280;12670;53.502;10.252;2024-01-07T09:25:18;102279.13;;;1.03;100.00
16120;BME280;12670;53.502;10.252;2024-01-07T09:28:21;102274.66;;;0.99;100.00
16120;BME280;12670;53.502;10.252;2024-01-07T09:31:24;102277.78;;;1.22;100.00
16120;BME280;12670;53.502;10.252;2024-01-07T09:34:28;102280.25;;;1.16;100.00
16120;BME280;12670;53.502;10.252;2024-01-07T09:37:31;102276.38;;;1.39;100.00
16120;BME280;12670;53.502;10.252;2024-01-07T09:40:34;102291.28;;;1.01;100.00
16120;BME280;12670;53.502;10.252;2024-01-07T09:43:36;102290.78;;;1.19;100.00
16120;BME280;12670;53.502;10.252;2024-01-07T09:46:39;102297.38;;;1.42;100.00
16120;BME280;12670;53.502;10.252;2024-01-07T09:49:46;102291.47;;;1.10;100.00
16120;BME280;12670;53.502;10.252;2024-01-07T09:52:51;102293.53;;;1.25;100.00
16120;BME280;12670;53.502;10.252;2024-01-07T09:56:05;102297.34;;;1.00;100.00
16120;BME280;12670;53.502;10.252;2024-01-07T09:59:10;102298.31;;;1.46;100.00
16120;BME280;12670;53.502;10.252;2024-01-07T10:02:15;102308.16;;;1.17;100.00
16120;BME280;12670;53.502;10.252;2024-01-07T10:05:19;102303.53;;;1.46;100.00
16120;BME280;12670;53.502;10.252;2024-01-07T10:08:22;102305.06;;;1.34;100.00
16120;BME280;12670;53.502;10.252;2024-01-07T10:11:28;102312.72;;;1.25;100.00
16120;BME280;12670;53.502;10.252;2024-01-07T10:14:31;102312.34;;;1.09;100.00
16120;BME280;12670;53.502;10.252;2024-01-07T10:17:34;102305.59;;;1.18;100.00
16120;BME280;12670;53.502;10.252;2024-01-07T10:20:38;102304.94;;;1.28;100.00
16120;BME280;12670;53.502;10.252;2024-01-07T10:23:44;102307.38;;;1.21;100.00
16120;BME280;12670;53.502;10.252;2024-01-07T10:26:48;102306.31;;;1.99;100.00
16120;BME280;12670;53.502;10.252;2024-01-07T10:29:50;102306.16;;;1.90;100.00
16120;BME280;12670;53.502;10.252;2024-01-07T10:32:57;102303.25;;;2.21;100.00
16120;BME280;12670;53.502;10.252;2024-01-07T10:36:05;102303.03;;;2.09;100.00
16120;BME280;12670;53.502;10.252;2024-01-07T10:39:08;102307.59;;;2.19;100.00
16120;BME280;12670;53.502;10.252;2024-01-07T10:42:12;102308.88;;;2.43;100.00
16120;BME280;12670;53.502;10.252;2024-01-07T10:45:16;102317.16;;;2.17;100.00
16120;BME280;12670;53.502;10.252;2024-01-07T10:48:19;102314.75;;;2.29;100.00
16120;BME280;12670;53.502;10.252;2024-01-07T10:51:24;102320.59;;;2.16;100.00
16120;BME280;12670;53.502;10.252;2024-01-07T10:54:30;102318.41;;;2.39;100.00
16120;BME280;12670;53.502;10.252;2024-01-07T10:57:38;102320.00;;;2.31;100.00
16120;BME280;12670;53.502;10.252;2024-01-07T11:00:44;102320.53;;;3.20;100.00
16120;BME280;12670;53.502;10.252;2024-01-07T11:03:53;102314.50;;;4.00;100.00
16120;BME280;12670;53.502;10.252;2024-01-07T11:07:01;102315.44;;;4.06;100.00
16120;BME280;12670;53.502;10.252;2024-01-07T11:10:10;102309.75;;;4.57;96.37
16120;BME280;12670;53.502;10.252;2024-01-07T11:13:32;102318.09;;;5.18;90.96
16120;BME280;12670;53.502;10.252;2024-01-07T11:16:41;102311.41;;;6.00;86.22
16120;BME280;12670;53.502;10.252;2024-01-07T11:19:49;102307.94;;;6.19;77.78
16120;BME280;12670;53.502;10.252;2024-01-07T11:23:26;102317.56;;;7.10;69.26
16120;BME280;12670;53.502;10.252;2024-01-07T11:26:30;102322.88;;;6.98;67.65
16120;BME280;12670;53.502;10.252;2024-01-07T11:29:33;102313.03;;;5.64;69.80
16120;BME280;12670;53.502;10.252;2024-01-07T11:32:35;102317.50;;;4.39;77.91
16120;BME280;12670;53.502;10.252;2024-01-07T11:35:55;102327.25;;;3.68;90.74
16120;BME280;12670;53.502;10.252;2024-01-07T11:39:00;102324.81;;;3.12;95.73
16120;BME280;12670;53.502;10.252;2024-01-07T11:42:04;102335.94;;;2.98;96.07
16120;BME280;12670;53.502;10.252;2024-01-07T11:45:07;102337.28;;;2.71;100.00
16120;BME280;12670;53.502;10.252;2024-01-07T11:48:12;102336.56;;;2.81;100.00
16120;BME280;12670;53.502;10.252;2024-01-07T11:51:15;102327.75;;;2.23;100.00
16120;BME280;12670;53.502;10.252;2024-01-07T11:54:20;102329.91;;;2.49;100.00
16120;BME280;12670;53.502;10.252;2024-01-07T11:57:23;102328.63;;;2.24;100.00
16120;BME280;12670;53.502;10.252;2024-01-07T12:00:25;102328.66;;;2.27;100.00
16120;BME280;12670;53.502;10.252;2024-01-07T12:03:28;102342.25;;;2.06;100.00
16120;BME280;12670;53.502;10.252;2024-01-07T12:06:31;102340.34;;;1.97;100.00
16120;BME280;12670;53.502;10.252;2024-01-07T12:09:35;102328.00;;;1.92;100.00
16120;BME280;12670;53.502;10.252;2024-01-07T12:12:38;102339.56;;;2.03;100.00
16120;BME280;12670;53.502;10.252;2024-01-07T12:15:42;102332.38;;;1.91;100.00
16120;BME280;12670;53.502;10.252;2024-01-07T12:18:46;102339.75;;;1.67;100.00
16120;BME280;12670;53.502;10.252;2024-01-07T12:21:49;102346.28;;;1.89;100.00
16120;BME280;12670;53.502;10.252;2024-01-07T12:25:01;102349.19;;;1.60;100.00
16120;BME280;12670;53.502;10.252;2024-01-07T12:28:06;102345.47;;;1.49;100.00
16120;BME280;12670;53.502;10.252;2024-01-07T12:31:11;102339.78;;;1.70;100.00
16120;BME280;12670;53.502;10.252;2024-01-07T12:34:14;102349.25;;;1.63;100.00
16120;BME280;12670;53.502;10.252;2024-01-07T12:37:17;102339.34;;;1.91;100.00
16120;BME280;12670;53.502;10.252;2024-01-07T12:40:21;102338.28;;;1.39;100.00
16120;BME280;12670;53.502;10.252;2024-01-07T12:43:26;102338.41;;;1.45;100.00
16120;BME280;12670;53.502;10.252;2024-01-07T12:46:28;102345.38;;;1.05;100.00
16120;BME280;12670;53.502;10.252;2024-01-07T12:49:32;102346.00;;;1.34;100.00
16120;BME280;12670;53.502;10.252;2024-01-07T12:52:36;102339.03;;;1.75;100.00
16120;BME280;12670;53.502;10.252;2024-01-07T12:55:41;102341.56;;;1.71;100.00
16120;BME280;12670;53.502;10.252;2024-01-07T12:58:43;102352.88;;;1.70;100.00
16120;BME280;12670;53.502;10.252;2024-01-07T13:01:46;102356.03;;;1.96;99.36
16120;BME280;12670;53.502;10.252;2024-01-07T13:04:49;102350.66;;;2.35;96.71
16120;BME280;12670;53.502;10.252;2024-01-07T13:07:52;102354.28;;;2.43;93.43
16120;BME280;12670;53.502;10.252;2024-01-07T13:10:56;102361.00;;;2.80;90.70
16120;BME280;12670;53.502;10.252;2024-01-07T13:14:00;102369.38;;;3.11;88.84
16120;BME280;12670;53.502;10.252;2024-01-07T13:17:04;102354.47;;;2.54;85.47
16120;BME280;12670;53.502;10.252;2024-01-07T13:20:07;102365.63;;;2.42;86.72
16120;BME280;12670;53.502;10.252;2024-01-07T13:23:13;102377.94;;;2.01;86.37
16120;BME280;12670;53.502;10.252;2024-01-07T13:26:17;102371.13;;;1.65;91.13
16120;BME280;12670;53.502;10.252;2024-01-07T13:29:19;102371.41;;;1.40;93.90
16120;BME280;12670;53.502;10.252;2024-01-07T13:32:22;102382.59;;;1.73;93.79
16120;BME280;12670;53.502;10.252;2024-01-07T13:35:25;102376.72;;;1.41;95.82
16120;BME280;12670;53.502;10.252;2024-01-07T13:38:28;102383.59;;;1.38;95.87
16120;BME280;12670;53.502;10.252;2024-01-07T13:41:33;102385.44;;;1.42;95.15
16120;BME280;12670;53.502;10.252;2024-01-07T13:44:36;102385.81;;;1.21;97.15
16120;BME280;12670;53.502;10.252;2024-01-07T13:47:47;102392.44;;;1.43;98.27
16120;BME280;12670;53.502;10.252;2024-01-07T13:50:50;102399.63;;;1.53;96.24
16120;BME280;12670;53.502;10.252;2024-01-07T13:53:55;102399.63;;;1.53;96.58
16120;BME280;12670;53.502;10.252;2024-01-07T13:56:59;102396.09;;;1.13;97.54
16120;BME280;12670;53.502;10.252;2024-01-07T14:00:02;102401.34;;;1.13;98.85
16120;BME280;12670;53.502;10.252;2024-01-07T14:03:09;102399.59;;;1.14;99.61
16120;BME280;12670;53.502;10.252;2024-01-07T14:06:12;102407.28;;;1.06;97.02
16120;BME280;12670;53.502;10.252;2024-01-07T14:09:14;102408.16;;;1.06;95.21
16120;BME280;12670;53.502;10.252;2024-01-07T14:12:18;102407.81;;;0.93;94.05
16120;BME280;12670;53.502;10.252;2024-01-07T14:15:21;102407.84;;;1.30;94.85
16120;BME280;12670;53.502;10.252;2024-01-07T14:18:24;102412.03;;;1.63;95.38
16120;BME280;12670;53.502;10.252;2024-01-07T14:21:27;102413.59;;;1.94;91.69
16120;BME280;12670;53.502;10.252;2024-01-07T14:24:30;102415.00;;;1.80;87.54
16120;BME280;12670;53.502;10.252;2024-01-07T14:27:34;102404.63;;;1.42;85.41
16120;BME280;12670;53.502;10.252;2024-01-07T14:30:37;102406.69;;;1.18;84.19
16120;BME280;12670;53.502;10.252;2024-01-07T14:33:40;102422.19;;;1.48;87.58
16120;BME280;12670;53.502;10.252;2024-01-07T14:36:43;102425.25;;;1.30;90.13
16120;BME280;12670;53.502;10.252;2024-01-07T14:39:46;102419.69;;;1.16;88.70
16120;BME280;12670;53.502;10.252;2024-01-07T14:42:50;102431.41;;;0.96;91.99
16120;BME280;12670;53.502;10.252;2024-01-07T14:45:54;102428.78;;;0.61;94.49
16120;BME280;12670;53.502;10.252;2024-01-07T14:48:57;102431.63;;;0.70;93.96
16120;BME280;12670;53.502;10.252;2024-01-07T14:52:00;102436.03;;;0.71;97.57
16120;BME280;12670;53.502;10.252;2024-01-07T14:55:03;102431.44;;;0.63;94.99
16120;BME280;12670;53.502;10.252;2024-01-07T14:58:07;102438.94;;;0.50;97.89
16120;BME280;12670;53.502;10.252;2024-01-07T15:01:10;102448.75;;;0.28;95.48
16120;BME280;12670;53.502;10.252;2024-01-07T15:04:13;102452.50;;;0.36;90.73
16120;BME280;12670;53.502;10.252;2024-01-07T15:07:16;102448.53;;;0.18;93.09
16120;BME280;12670;53.502;10.252;2024-01-07T15:10:20;102448.94;;;0.02;90.89
16120;BME280;12670;53.502;10.252;2024-01-07T15:13:24;102459.03;;;0.21;95.04
16120;BME280;12670;53.502;10.252;2024-01-07T15:16:28;102456.09;;;0.09;93.79
16120;BME280;12670;53.502;10.252;2024-01-07T15:19:31;102462.75;;;-0.01;97.98
16120;BME280;12670;53.502;10.252;2024-01-07T15:22:34;102459.22;;;-0.03;98.65
16120;BME280;12670;53.502;10.252;2024-01-07T15:25:37;102468.28;;;0.10;100.00
16120;BME280;12670;53.502;10.252;2024-01-07T15:28:41;102463.75;;;-0.25;98.38
16120;BME280;12670;53.502;10.252;2024-01-07T15:31:44;102475.75;;;-0.02;100.00
16120;BME280;12670;53.502;10.252;2024-01-07T15:34:47;102472.13;;;-0.07;100.00
16120;BME280;12670;53.502;10.252;2024-01-07T15:37:50;102464.66;;;0.05;100.00
16120;BME280;12670;53.502;10.252;2024-01-07T15:40:52;102458.88;;;-0.15;100.00
16120;BME280;12670;53.502;10.252;2024-01-07T15:43:56;102469.88;;;0.05;100.00
16120;BME280;12670;53.502;10.252;2024-01-07T15:46:59;102471.78;;;0.11;100.00
16120;BME280;12670;53.502;10.252;2024-01-07T15:50:02;102471.06;;;0.16;100.00